createdAt,value
2023-11-23T00:01:28.365Z,88.71
2023-11-23T00:03:54.971Z,88.04
2023-11-23T00:06:21.549Z,89.21
2023-11-23T00:08:48.213Z,89.20
2023-11-23T00:11:14.801Z,89.48
2023-11-23T00:13:43.313Z,89.92
2023-11-23T00:16:10.142Z,89.42
2023-11-23T00:18:36.799Z,89.31
2023-11-23T00:21:03.787Z,90.19
2023-11-23T00:23:33.018Z,89.86
2023-11-23T00:25:59.631Z,89.89
2023-11-23T00:28:26.931Z,89.96
2023-11-23T00:30:54.931Z,90.07
2023-11-23T00:33:21.814Z,89.53
2023-11-23T00:35:48.556Z,89.58
2023-11-23T00:38:19.839Z,89.98
2023-11-23T00:40:46.390Z,90.48
2023-11-23T00:43:13.009Z,90.00
2023-11-23T00:45:39.779Z,90.04
2023-11-23T00:48:07.878Z,89.86
2023-11-23T00:50:34.530Z,89.39
2023-11-23T00:53:01.151Z,89.69
2023-11-23T00:55:28.063Z,90.05
2023-11-23T00:57:54.589Z,88.89
2023-11-23T01:00:21.449Z,89.99
2023-11-23T01:02:48.274Z,90.30
2023-11-23T01:05:16.561Z,88.89
2023-11-23T01:07:43.605Z,88.70
2023-11-23T01:10:11.302Z,89.29
2023-11-23T01:12:37.863Z,89.10
2023-11-23T01:15:05.059Z,88.84
2023-11-23T01:17:31.697Z,89.43
2023-11-23T01:19:58.317Z,89.36
2023-11-23T01:22:26.307Z,90.23
2023-11-23T01:24:53.127Z,89.14
2023-11-23T01:27:19.687Z,88.70
2023-11-23T01:29:46.269Z,89.23
2023-11-23T01:32:12.871Z,89.82
2023-11-23T01:34:39.479Z,89.84
2023-11-23T01:37:06.165Z,89.39
2023-11-23T01:39:34.100Z,89.01
2023-11-23T01:42:00.652Z,89.70
2023-11-23T01:44:27.227Z,89.63
2023-11-23T01:46:54.283Z,89.71
2023-11-23T01:49:21.383Z,90.24
2023-11-23T01:51:48.132Z,90.16
2023-11-23T01:54:14.959Z,89.17
2023-11-23T01:56:43.927Z,89.98
2023-11-23T01:59:10.572Z,90.38
2023-11-23T02:01:37.607Z,90.09
2023-11-23T02:04:04.755Z,90.02
2023-11-23T02:06:31.395Z,90.29
2023-11-23T02:08:58.084Z,90.69
2023-11-23T02:11:24.716Z,90.16
2023-11-23T02:13:53.122Z,90.65
2023-11-23T02:16:19.679Z,90.59
2023-11-23T02:18:46.559Z,90.46
2023-11-23T02:21:13.197Z,90.71
2023-11-23T02:23:40.018Z,90.43
2023-11-23T02:26:08.182Z,90.18
2023-11-23T02:28:35.132Z,90.18
2023-11-23T02:31:02.986Z,90.26
2023-11-23T02:33:29.641Z,90.79
2023-11-23T02:35:56.272Z,90.21
2023-11-23T02:38:22.914Z,90.32
2023-11-23T02:40:49.485Z,91.04
2023-11-23T02:43:17.562Z,90.56
2023-11-23T02:45:44.301Z,91.69
2023-11-23T02:48:10.992Z,91.30
2023-11-23T02:50:37.603Z,91.02
2023-11-23T02:53:04.895Z,91.71
2023-11-23T02:55:31.720Z,90.73
2023-11-23T02:57:58.411Z,91.43
2023-11-23T03:00:26.584Z,91.79
2023-11-23T03:02:53.810Z,91.87
2023-11-23T03:05:20.464Z,90.46
2023-11-23T03:07:47.062Z,91.13
2023-11-23T03:10:13.727Z,91.53
2023-11-23T03:12:40.384Z,91.07
2023-11-23T03:15:07.825Z,91.69
2023-11-23T03:17:35.704Z,92.05
2023-11-23T03:20:02.358Z,92.19
2023-11-23T03:22:28.939Z,91.43
2023-11-23T03:24:56.857Z,91.24
2023-11-23T03:27:23.450Z,92.18
2023-11-23T03:29:50.086Z,91.41
2023-11-23T03:32:16.725Z,91.03
2023-11-23T03:34:45.298Z,92.40
2023-11-23T03:37:11.902Z,91.98
2023-11-23T03:39:38.497Z,92.12
2023-11-23T03:42:06.461Z,91.61
2023-11-23T03:44:33.138Z,91.31
2023-11-23T03:46:59.721Z,92.14
2023-11-23T03:49:26.317Z,92.22
2023-11-23T03:51:54.247Z,92.38
2023-11-23T03:54:20.867Z,91.88
2023-11-23T03:56:47.535Z,91.79
2023-11-23T03:59:14.261Z,92.33
2023-11-23T04:01:45.108Z,91.68
2023-11-23T04:04:12.584Z,91.59
2023-11-23T04:06:39.375Z,92.35
2023-11-23T04:09:07.733Z,92.80
2023-11-23T04:11:34.297Z,93.06
2023-11-23T04:14:00.956Z,92.33
2023-11-23T04:16:27.597Z,92.24
2023-11-23T04:18:54.239Z,92.29
2023-11-23T04:21:20.871Z,92.85
2023-11-23T04:23:47.571Z,92.36
2023-11-23T04:26:15.639Z,92.92
2023-11-23T04:28:42.180Z,93.02
2023-11-23T04:31:08.769Z,92.53
2023-11-23T04:33:35.502Z,92.33
2023-11-23T04:36:02.227Z,92.20
2023-11-23T04:38:29.102Z,92.53
2023-11-23T04:40:55.696Z,92.34
2023-11-23T04:43:23.578Z,92.61
2023-11-23T04:45:50.238Z,92.32
2023-11-23T04:48:16.977Z,91.72
2023-11-23T04:50:43.625Z,92.14
2023-11-23T04:53:10.203Z,91.89
2023-11-23T04:55:38.154Z,91.92
2023-11-23T04:58:04.768Z,92.05
2023-11-23T05:00:32.805Z,91.66
2023-11-23T05:02:59.505Z,91.92
2023-11-23T05:05:26.150Z,92.07
2023-11-23T05:07:52.793Z,91.92
2023-11-23T05:10:19.461Z,92.06
2023-11-23T05:12:46.036Z,92.08
2023-11-23T05:15:12.867Z,91.65
2023-11-23T05:17:41.016Z,91.32
2023-11-23T05:20:09.847Z,92.57
2023-11-23T05:22:36.468Z,92.54
2023-11-23T05:25:03.090Z,92.30
2023-11-23T05:27:29.738Z,91.99
2023-11-23T05:29:56.409Z,91.95
2023-11-23T05:32:23.041Z,92.38
2023-11-23T05:34:51.038Z,92.44
2023-11-23T05:37:17.557Z,91.93
2023-11-23T05:39:44.756Z,92.09
2023-11-23T05:42:11.623Z,92.49
2023-11-23T05:44:38.583Z,91.58
2023-11-23T05:47:06.009Z,91.99
2023-11-23T05:49:32.578Z,92.36
2023-11-23T05:52:01.108Z,92.15
2023-11-23T05:54:27.770Z,92.63
2023-11-23T05:56:54.471Z,91.43
2023-11-23T05:59:21.758Z,91.69
2023-11-23T06:01:48.473Z,91.86
2023-11-23T06:04:15.195Z,91.70
2023-11-23T06:06:41.932Z,91.81
2023-11-23T06:09:12.958Z,91.59
2023-11-23T06:11:39.747Z,91.69
2023-11-23T06:14:06.450Z,91.78
2023-11-23T06:16:33.170Z,92.06
2023-11-23T06:19:03.398Z,91.87
2023-11-23T06:21:30.713Z,91.91
2023-11-23T06:23:57.888Z,91.66
2023-11-23T06:26:26.013Z,91.65
2023-11-23T06:28:52.542Z,92.05
2023-11-23T06:31:19.363Z,92.43
2023-11-23T06:33:46.140Z,92.04
2023-11-23T06:36:12.968Z,92.10
2023-11-23T06:38:39.538Z,92.04
2023-11-23T06:41:06.578Z,92.09
2023-11-23T06:43:34.654Z,92.19
2023-11-23T06:46:01.397Z,91.99
2023-11-23T06:48:28.141Z,91.89
2023-11-23T06:50:54.804Z,92.26
2023-11-23T06:53:22.840Z,92.78
2023-11-23T06:55:49.629Z,92.18
2023-11-23T06:58:16.367Z,92.26
2023-11-23T07:00:44.647Z,92.20
2023-11-23T07:03:11.597Z,92.56
2023-11-23T07:05:38.291Z,92.68
2023-11-23T07:08:05.139Z,92.10
2023-11-23T07:10:35.042Z,91.40
2023-11-23T07:13:02.155Z,92.35
2023-11-23T07:15:30.947Z,92.60
2023-11-23T07:18:00.782Z,92.58
2023-11-23T07:20:27.739Z,92.60
2023-11-23T07:22:54.506Z,93.00
2023-11-23T07:25:21.404Z,92.32
2023-11-23T07:27:47.998Z,92.26
2023-11-23T07:30:15.393Z,92.26
2023-11-23T07:32:42.165Z,92.33
2023-11-23T07:35:10.270Z,92.09
2023-11-23T07:37:36.920Z,91.63
2023-11-23T07:40:13.918Z,92.00
2023-11-23T07:42:42.511Z,91.48
2023-11-23T07:45:10.003Z,91.74
2023-11-23T07:47:37.308Z,91.75
2023-11-23T07:50:05.154Z,91.67
2023-11-23T07:52:33.078Z,91.39
2023-11-23T07:54:59.809Z,91.30
2023-11-23T07:57:27.294Z,91.23
2023-11-23T07:59:58.803Z,90.91
2023-11-23T08:02:25.462Z,91.18
2023-11-23T08:04:52.169Z,91.24
2023-11-23T08:07:18.781Z,91.34
2023-11-23T08:09:46.781Z,90.78
2023-11-23T08:12:14.257Z,91.51
2023-11-23T08:14:40.858Z,91.00
2023-11-23T08:17:07.492Z,90.79
2023-11-23T08:19:34.150Z,90.52
2023-11-23T08:22:00.774Z,90.39
2023-11-23T08:24:27.413Z,90.62
2023-11-23T08:26:55.752Z,90.40
2023-11-23T08:29:22.444Z,90.14
2023-11-23T08:31:49.528Z,90.66
2023-11-23T08:34:16.215Z,90.58
2023-11-23T08:36:43.100Z,90.67
2023-11-23T08:39:13.509Z,90.16
2023-11-23T08:41:40.387Z,90.55
2023-11-23T08:44:08.491Z,89.78
2023-11-23T08:46:35.366Z,89.92
2023-11-23T08:49:02.260Z,89.80
2023-11-23T08:51:30.824Z,90.17
2023-11-23T08:53:57.638Z,90.08
2023-11-23T08:56:24.301Z,89.10
2023-11-23T08:58:51.225Z,89.46
2023-11-23T09:01:19.205Z,88.48
2023-11-23T09:03:46.137Z,88.89
2023-11-23T09:06:14.797Z,88.93
2023-11-23T09:08:41.657Z,88.89
2023-11-23T09:11:08.451Z,89.19
2023-11-23T09:13:35.026Z,88.63
2023-11-23T09:16:01.825Z,88.84
2023-11-23T09:18:29.913Z,89.05
2023-11-23T09:20:58.704Z,88.55
2023-11-23T09:23:28.563Z,88.60
2023-11-23T09:25:55.278Z,87.99
2023-11-23T09:28:23.006Z,88.23
2023-11-23T09:30:49.712Z,88.65
2023-11-23T09:33:19.969Z,88.99
2023-11-23T09:35:48.683Z,88.25
2023-11-23T09:38:15.848Z,88.17
2023-11-23T09:40:42.471Z,88.17
2023-11-23T09:43:10.508Z,88.45
2023-11-23T09:45:37.508Z,87.16
2023-11-23T09:48:07.734Z,87.81
2023-11-23T09:50:37.982Z,87.09
2023-11-23T09:53:09.242Z,87.36
2023-11-23T09:55:35.994Z,86.85
2023-11-23T09:58:05.841Z,86.85
2023-11-23T10:00:36.882Z,86.87
2023-11-23T10:03:08.197Z,86.97
2023-11-23T10:05:35.155Z,87.18
2023-11-23T10:08:01.735Z,86.58
2023-11-23T10:10:30.872Z,87.32
2023-11-23T10:12:57.591Z,85.71
2023-11-23T10:15:26.305Z,86.87
2023-11-23T10:17:53.123Z,86.38
2023-11-23T10:20:19.958Z,85.85
2023-11-23T10:22:48.222Z,84.95
2023-11-23T10:25:32.910Z,85.82
2023-11-23T10:28:01.397Z,85.21
2023-11-23T10:30:29.333Z,85.11
2023-11-23T10:32:56.757Z,85.87
2023-11-23T10:35:24.833Z,84.80
2023-11-23T10:37:54.175Z,85.28
2023-11-23T10:40:22.235Z,84.63
2023-11-23T10:42:50.107Z,84.85
2023-11-23T10:45:18.759Z,85.05
2023-11-23T10:47:48.334Z,84.52
2023-11-23T10:50:16.993Z,85.42
2023-11-23T10:52:45.121Z,84.26
2023-11-23T10:55:11.866Z,84.26
2023-11-23T10:57:39.592Z,84.55
2023-11-23T11:00:12.825Z,84.42
2023-11-23T11:02:41.409Z,84.36
2023-11-23T11:05:21.247Z,83.28
2023-11-23T11:07:55.129Z,84.19
2023-11-23T11:10:21.696Z,83.15
2023-11-23T11:12:48.580Z,83.28
2023-11-23T11:15:18.507Z,82.80
2023-11-23T11:17:48.147Z,83.60
2023-11-23T11:20:23.376Z,83.71
2023-11-23T11:22:56.663Z,83.42
2023-11-23T11:25:23.465Z,82.94
2023-11-23T11:27:51.124Z,82.86
2023-11-23T11:30:26.014Z,83.10
2023-11-23T11:32:54.652Z,83.82
2023-11-23T11:35:21.731Z,82.80
2023-11-23T11:37:48.390Z,83.11
2023-11-23T11:40:16.950Z,82.86
2023-11-23T11:42:44.043Z,83.24
2023-11-23T11:45:13.639Z,82.10
2023-11-23T11:47:40.392Z,83.00
2023-11-23T11:50:10.136Z,82.02
2023-11-23T11:52:38.210Z,82.19
2023-11-23T11:55:06.458Z,82.60
2023-11-23T11:57:40.020Z,82.53
2023-11-23T12:00:08.714Z,82.79
2023-11-23T12:02:35.573Z,82.30
2023-11-23T12:05:02.826Z,82.52
2023-11-23T12:07:30.756Z,82.39
2023-11-23T12:09:57.541Z,82.53
2023-11-23T12:12:24.282Z,82.78
2023-11-23T12:14:51.121Z,82.27
2023-11-23T12:17:18.289Z,82.66
2023-11-23T12:19:54.378Z,83.01
2023-11-23T12:22:22.403Z,82.68
2023-11-23T12:24:50.664Z,82.04
2023-11-23T12:27:17.864Z,82.21
2023-11-23T12:29:44.927Z,82.26
2023-11-23T12:32:11.538Z,82.27
2023-11-23T12:34:38.094Z,83.16
2023-11-23T12:37:05.146Z,82.72
2023-11-23T12:39:31.796Z,83.55
2023-11-23T12:41:59.812Z,82.73
2023-11-23T12:44:26.530Z,83.21
2023-11-23T12:46:53.495Z,82.79
2023-11-23T12:49:21.036Z,83.30
2023-11-23T12:51:47.712Z,83.56
2023-11-23T12:54:15.989Z,82.84
2023-11-23T12:56:42.944Z,82.81
2023-11-23T12:59:11.384Z,83.03
2023-11-23T13:01:39.613Z,82.41
2023-11-23T13:04:08.883Z,83.85
2023-11-23T13:06:36.184Z,83.43
2023-11-23T13:09:03.786Z,82.45
2023-11-23T13:11:30.393Z,83.32
2023-11-23T13:13:57.019Z,81.93
2023-11-23T13:16:25.362Z,81.91
2023-11-23T13:19:06.333Z,82.86
2023-11-23T13:21:39.548Z,82.76
2023-11-23T13:24:07.993Z,83.34
2023-11-23T13:26:35.124Z,83.16
2023-11-23T13:29:01.881Z,82.77
2023-11-23T13:31:29.856Z,83.67
2023-11-23T13:33:57.038Z,83.08
2023-11-23T13:36:23.942Z,83.60
2023-11-23T13:38:51.604Z,83.39
2023-11-23T13:41:19.635Z,82.95
2023-11-23T13:43:46.408Z,83.36
2023-11-23T13:46:13.813Z,82.88
2023-11-23T13:48:41.955Z,83.77
2023-11-23T13:51:09.553Z,83.48
2023-11-23T13:53:36.201Z,83.73
2023-11-23T13:56:02.859Z,82.72
2023-11-23T13:58:31.095Z,82.07
2023-11-23T14:00:57.625Z,81.90
2023-11-23T14:03:24.563Z,83.33
2023-11-23T14:05:53.600Z,83.52
2023-11-23T14:08:22.084Z,82.57
2023-11-23T14:10:48.736Z,83.33
2023-11-23T14:13:15.588Z,83.24
2023-11-23T14:15:42.412Z,81.95
2023-11-23T14:18:11.750Z,81.97
2023-11-23T14:20:38.907Z,83.42
2023-11-23T14:23:06.828Z,82.43
2023-11-23T14:25:33.427Z,82.47
2023-11-23T14:28:00.528Z,82.15
2023-11-23T14:30:28.700Z,82.44
2023-11-23T14:32:55.382Z,81.41
2023-11-23T14:35:22.690Z,81.46
2023-11-23T14:37:51.184Z,82.20
2023-11-23T14:40:20.300Z,82.46
2023-11-23T14:42:56.134Z,81.68
2023-11-23T14:45:24.504Z,81.88
2023-11-23T14:47:52.754Z,82.40
2023-11-23T14:50:20.751Z,82.16
2023-11-23T14:52:47.382Z,80.91
2023-11-23T14:55:17.776Z,80.95
2023-11-23T14:57:45.882Z,81.46
2023-11-23T15:00:14.169Z,80.85
2023-11-23T15:02:42.972Z,81.48
2023-11-23T15:05:13.530Z,81.37
2023-11-23T15:07:40.765Z,81.59
2023-11-23T15:10:12.872Z,82.12
2023-11-23T15:12:40.169Z,81.70
2023-11-23T15:15:08.874Z,81.61
2023-11-23T15:17:37.353Z,81.80
2023-11-23T15:20:07.096Z,82.08
2023-11-23T15:22:34.571Z,81.45
2023-11-23T15:25:08.414Z,81.95
2023-11-23T15:27:37.409Z,81.84
2023-11-23T15:30:05.988Z,82.37
2023-11-23T15:32:38.745Z,82.62
2023-11-23T15:35:07.468Z,81.18
2023-11-23T15:37:34.107Z,81.44
2023-11-23T15:40:00.711Z,82.47
2023-11-23T15:42:27.964Z,82.99
2023-11-23T15:44:54.621Z,82.62
2023-11-23T15:47:21.258Z,82.76
2023-11-23T15:49:49.155Z,82.19
2023-11-23T15:52:15.770Z,83.03
2023-11-23T15:54:42.387Z,82.72
2023-11-23T15:57:09.053Z,82.53
2023-11-23T15:59:37.134Z,81.84
2023-11-23T16:02:04.912Z,83.03
2023-11-23T16:04:31.740Z,83.31
2023-11-23T16:07:01.750Z,82.15
2023-11-23T16:09:28.748Z,82.54
2023-11-23T16:11:55.346Z,81.76
2023-11-23T16:14:22.482Z,81.95
2023-11-23T16:16:49.096Z,81.68
2023-11-23T16:19:15.841Z,82.29
2023-11-23T16:21:42.469Z,82.73
2023-11-23T16:24:15.089Z,82.57
2023-11-23T16:26:43.134Z,82.97
2023-11-23T16:29:11.745Z,83.37
2023-11-23T16:31:43.268Z,82.13
2023-11-23T16:34:10.419Z,82.62
2023-11-23T16:36:40.014Z,82.84
2023-11-23T16:39:08.481Z,82.32
2023-11-23T16:41:36.714Z,83.17
2023-11-23T16:44:03.454Z,82.81
2023-11-23T16:46:30.053Z,82.56
2023-11-23T16:48:56.835Z,82.22
2023-11-23T16:51:25.882Z,82.74
2023-11-23T16:53:55.331Z,82.72
2023-11-23T16:56:22.243Z,82.52
2023-11-23T16:58:50.426Z,82.93
2023-11-23T17:01:18.281Z,83.18
2023-11-23T17:03:44.932Z,82.68
2023-11-23T17:06:12.729Z,83.21
2023-11-23T17:08:40.845Z,82.77
2023-11-23T17:11:10.383Z,83.41
2023-11-23T17:13:37.462Z,82.14
2023-11-23T17:16:06.900Z,83.22
2023-11-23T17:18:33.592Z,82.30
2023-11-23T17:21:00.239Z,83.75
2023-11-23T17:23:26.819Z,83.77
2023-11-23T17:25:53.444Z,83.19
2023-11-23T17:28:24.344Z,83.15
2023-11-23T17:30:54.956Z,82.54
2023-11-23T17:33:24.471Z,83.49
2023-11-23T17:35:53.119Z,83.50
2023-11-23T17:38:20.006Z,83.25
2023-11-23T17:40:46.727Z,82.53
2023-11-23T17:43:13.424Z,82.81
2023-11-23T17:45:41.392Z,83.39
2023-11-23T17:48:09.045Z,84.07
2023-11-23T17:50:40.161Z,82.66
2023-11-23T17:53:07.460Z,82.93
2023-11-23T17:55:34.536Z,83.34
2023-11-23T17:58:04.176Z,82.50
2023-11-23T18:00:31.626Z,83.10
2023-11-23T18:02:58.906Z,82.91
2023-11-23T18:05:25.547Z,83.07
2023-11-23T18:07:53.555Z,83.54
2023-11-23T18:10:21.279Z,84.50
2023-11-23T18:12:47.901Z,83.41
2023-11-23T18:15:15.155Z,84.09
2023-11-23T18:17:43.093Z,83.57
2023-11-23T18:20:12.862Z,84.20
2023-11-23T18:22:39.839Z,83.55
2023-11-23T18:25:08.392Z,83.40
2023-11-23T18:27:35.354Z,83.11
2023-11-23T18:30:01.996Z,84.17
2023-11-23T18:32:30.649Z,84.85
2023-11-23T18:34:57.317Z,84.46
2023-11-23T18:37:23.894Z,84.70
2023-11-23T18:39:50.609Z,84.45
2023-11-23T18:42:18.604Z,84.81
2023-11-23T18:44:45.257Z,85.48
2023-11-23T18:47:12.399Z,85.75
2023-11-23T18:49:38.909Z,85.02
2023-11-23T18:52:06.148Z,85.22
2023-11-23T18:54:32.656Z,85.30
2023-11-23T18:56:59.305Z,85.75
2023-11-23T18:59:27.210Z,85.60
2023-11-23T19:01:55.535Z,86.20
2023-11-23T19:04:23.472Z,85.78
2023-11-23T19:06:53.316Z,86.11
2023-11-23T19:09:22.919Z,86.15
2023-11-23T19:11:50.452Z,86.65
2023-11-23T19:14:17.063Z,86.24
2023-11-23T19:16:45.052Z,86.88
2023-11-23T19:19:12.960Z,85.82
2023-11-23T19:21:40.306Z,85.64
2023-11-23T19:24:08.965Z,86.08
2023-11-23T19:26:36.741Z,86.37
2023-11-23T19:29:04.242Z,85.50
2023-11-23T19:31:32.385Z,86.15
2023-11-23T19:34:01.743Z,85.30
2023-11-23T19:36:29.112Z,84.90
2023-11-23T19:38:56.335Z,85.76
2023-11-23T19:41:23.699Z,85.40
2023-11-23T19:43:50.854Z,85.86
2023-11-23T19:46:18.148Z,85.78
2023-11-23T19:48:45.792Z,86.27
2023-11-23T19:51:14.552Z,86.07
2023-11-23T19:53:44.132Z,87.33
2023-11-23T19:56:10.747Z,85.73
2023-11-23T19:58:38.513Z,86.87
2023-11-23T20:01:05.624Z,87.29
2023-11-23T20:03:33.631Z,87.95
2023-11-23T20:06:01.945Z,88.10
2023-11-23T20:08:32.322Z,87.87
2023-11-23T20:10:59.477Z,87.89
2023-11-23T20:13:26.062Z,88.99
2023-11-23T20:15:52.825Z,88.10
2023-11-23T20:18:19.559Z,88.32
2023-11-23T20:20:46.118Z,89.19
2023-11-23T20:23:13.390Z,88.61
2023-11-23T20:25:41.326Z,88.29
2023-11-23T20:28:10.876Z,88.58
2023-11-23T20:30:37.534Z,88.80
2023-11-23T20:33:04.126Z,89.29
2023-11-23T20:35:30.707Z,87.30
2023-11-23T20:37:57.418Z,88.66
2023-11-23T20:40:24.247Z,88.17
2023-11-23T20:42:52.237Z,88.80
2023-11-23T20:45:19.008Z,88.13
2023-11-23T20:47:45.984Z,90.02
2023-11-23T20:50:12.793Z,89.30
2023-11-23T20:52:40.530Z,89.64
2023-11-23T20:55:09.774Z,90.17
2023-11-23T20:57:37.055Z,90.18
2023-11-23T21:00:09.161Z,90.36
2023-11-23T21:02:36.629Z,89.79
2023-11-23T21:05:05.662Z,90.30
2023-11-23T21:07:33.153Z,90.38
2023-11-23T21:10:01.253Z,90.90
2023-11-23T21:12:28.114Z,91.46
2023-11-23T21:14:54.885Z,90.78
2023-11-23T21:17:23.126Z,90.66
2023-11-23T21:19:49.767Z,91.41
2023-11-23T21:22:16.540Z,90.64
2023-11-23T21:24:45.394Z,91.68
2023-11-23T21:27:12.506Z,91.30
2023-11-23T21:29:39.366Z,90.46
2023-11-23T21:32:07.023Z,90.64
2023-11-23T21:34:34.983Z,90.84
2023-11-23T21:37:01.567Z,90.37
2023-11-23T21:39:29.623Z,90.40
2023-11-23T21:41:56.564Z,90.31
2023-11-23T21:44:23.129Z,89.89
2023-11-23T21:46:49.889Z,91.22
2023-11-23T21:49:16.548Z,90.43
2023-11-23T21:51:46.618Z,91.45
2023-11-23T21:54:13.310Z,89.70
2023-11-23T21:56:40.140Z,89.96
2023-11-23T21:59:06.801Z,90.31
2023-11-23T22:01:34.960Z,90.57
2023-11-23T22:04:04.545Z,90.24
2023-11-23T22:06:31.205Z,91.17
2023-11-23T22:08:59.251Z,90.14
2023-11-23T22:11:25.827Z,90.07
2023-11-23T22:13:52.443Z,90.06
2023-11-23T22:16:19.056Z,89.94
2023-11-23T22:18:46.217Z,89.96
2023-11-23T22:21:13.768Z,90.09
2023-11-23T22:23:40.722Z,90.79
2023-11-23T22:26:09.827Z,90.20
2023-11-23T22:28:37.001Z,90.74
2023-11-23T22:31:10.029Z,90.63
2023-11-23T22:33:37.483Z,89.42
2023-11-23T22:36:04.726Z,89.80
2023-11-23T22:38:32.092Z,90.31
2023-11-23T22:40:59.521Z,89.59
2023-11-23T22:43:28.242Z,90.02
2023-11-23T22:45:55.352Z,89.91
2023-11-23T22:48:24.384Z,89.21
2023-11-23T22:50:50.980Z,89.60
2023-11-23T22:53:17.602Z,89.54
2023-11-23T22:55:44.605Z,89.21
2023-11-23T22:58:11.186Z,90.53
2023-11-23T23:00:39.645Z,90.33
2023-11-23T23:03:06.405Z,91.05
2023-11-23T23:05:33.265Z,91.44
2023-11-23T23:07:59.971Z,89.25
2023-11-23T23:10:28.200Z,90.66
2023-11-23T23:12:55.199Z,89.52
2023-11-23T23:15:22.506Z,89.74
2023-11-23T23:17:52.566Z,86.31
2023-11-23T23:20:19.453Z,87.32
2023-11-23T23:22:46.402Z,86.68
2023-11-23T23:25:13.770Z,85.74
2023-11-23T23:27:40.403Z,86.43
2023-11-23T23:30:10.364Z,87.51
2023-11-23T23:32:40.377Z,87.42
2023-11-23T23:35:12.557Z,86.94
2023-11-23T23:37:39.762Z,87.17
2023-11-23T23:40:07.756Z,86.37
2023-11-23T23:42:34.467Z,87.46
2023-11-23T23:45:01.082Z,87.67
2023-11-23T23:47:27.810Z,86.81
2023-11-23T23:49:55.040Z,85.77
2023-11-23T23:52:23.393Z,85.34
2023-11-23T23:54:50.030Z,85.14
2023-11-23T23:57:16.999Z,83.90
2023-11-23T23:59:43.614Z,81.45
